sensor_id;sensor_type;location;lat;lon;timestamp;pressure;altitude;pressure_sealevel;temperature;humidity
62942;BME280;49042;47.318;19.874;2023-12-29T00:02:24;100950.28;;;1.46;100.00
62942;BME280;49042;47.318;19.874;2023-12-29T00:05:26;100953.53;;;1.44;100.00
62942;BME280;49042;47.318;19.874;2023-12-29T00:08:29;100960.66;;;1.36;100.00
62942;BME280;49042;47.318;19.874;2023-12-29T00:11:30;100944.91;;;1.66;100.00
62942;BME280;49042;47.318;19.874;2023-12-29T00:14:33;100954.66;;;1.82;100.00
62942;BME280;49042;47.318;19.874;2023-12-29T00:17:34;100953.69;;;2.04;100.00
62942;BME280;49042;47.318;19.874;2023-12-29T00:20:39;100952.34;;;2.09;100.00
62942;BME280;49042;47.318;19.874;2023-12-29T00:23:42;100952.66;;;2.02;100.00
62942;BME280;49042;47.318;19.874;2023-12-29T00:26:45;100937.22;;;2.02;100.00
62942;BME280;49042;47.318;19.874;2023-12-29T00:29:47;100939.56;;;1.99;100.00
62942;BME280;49042;47.318;19.874;2023-12-29T00:32:49;100943.91;;;1.76;100.00
62942;BME280;49042;47.318;19.874;2023-12-29T00:35:51;100951.19;;;1.47;100.00
62942;BME280;49042;47.318;19.874;2023-12-29T00:38:52;100947.69;;;1.69;100.00
62942;BME280;49042;47.318;19.874;2023-12-29T00:41:55;100951.03;;;1.68;100.00
62942;BME280;49042;47.318;19.874;2023-12-29T00:44:57;100945.59;;;1.75;100.00
62942;BME280;49042;47.318;19.874;2023-12-29T00:47:59;100949.91;;;1.64;100.00
62942;BME280;49042;47.318;19.874;2023-12-29T00:51:02;100952.75;;;1.91;100.00
62942;BME280;49042;47.318;19.874;2023-12-29T00:54:04;100949.06;;;1.88;100.00
62942;BME280;49042;47.318;19.874;2023-12-29T00:57:06;100939.50;;;1.63;100.00
62942;BME280;49042;47.318;19.874;2023-12-29T01:00:10;100944.72;;;1.99;100.00
62942;BME280;49042;47.318;19.874;2023-12-29T01:03:13;100941.72;;;2.17;100.00
62942;BME280;49042;47.318;19.874;2023-12-29T01:06:14;100941.25;;;1.98;100.00
62942;BME280;49042;47.318;19.874;2023-12-29T01:09:16;100936.00;;;2.09;100.00
62942;BME280;49042;47.318;19.874;2023-12-29T01:12:18;100939.84;;;2.26;100.00
62942;BME280;49042;47.318;19.874;2023-12-29T01:15:19;100949.09;;;2.00;100.00
62942;BME280;49042;47.318;19.874;2023-12-29T01:18:21;100940.16;;;2.19;100.00
62942;BME280;49042;47.318;19.874;2023-12-29T01:21:23;100945.06;;;2.28;100.00
62942;BME280;49042;47.318;19.874;2023-12-29T01:24:25;100930.44;;;2.14;100.00
62942;BME280;49042;47.318;19.874;2023-12-29T01:27:36;100928.37;;;1.86;100.00
62942;BME280;49042;47.318;19.874;2023-12-29T01:30:38;100925.34;;;1.80;100.00
62942;BME280;49042;47.318;19.874;2023-12-29T01:33:40;100920.00;;;2.01;100.00
62942;BME280;49042;47.318;19.874;2023-12-29T01:36:42;100911.50;;;1.90;100.00
62942;BME280;49042;47.318;19.874;2023-12-29T01:39:44;100909.81;;;2.02;100.00
62942;BME280;49042;47.318;19.874;2023-12-29T01:42:45;100907.13;;;2.13;100.00
62942;BME280;49042;47.318;19.874;2023-12-29T01:45:47;100903.00;;;2.03;100.00
62942;BME280;49042;47.318;19.874;2023-12-29T01:48:58;100894.84;;;1.97;100.00
62942;BME280;49042;47.318;19.874;2023-12-29T01:52:01;100896.97;;;2.14;100.00
62942;BME280;49042;47.318;19.874;2023-12-29T01:55:04;100889.66;;;2.09;100.00
62942;BME280;49042;47.318;19.874;2023-12-29T01:58:06;100894.03;;;2.10;100.00
62942;BME280;49042;47.318;19.874;2023-12-29T02:01:08;100898.09;;;2.18;100.00
62942;BME280;49042;47.318;19.874;2023-12-29T02:04:12;100894.84;;;2.21;100.00
62942;BME280;49042;47.318;19.874;2023-12-29T02:07:14;100903.56;;;2.35;100.00
62942;BME280;49042;47.318;19.874;2023-12-29T02:10:17;100901.31;;;2.16;100.00
62942;BME280;49042;47.318;19.874;2023-12-29T02:13:19;100901.31;;;2.28;100.00
62942;BME280;49042;47.318;19.874;2023-12-29T02:19:48;100892.00;;;2.42;100.00
62942;BME280;49042;47.318;19.874;2023-12-29T02:22:52;100890.63;;;2.59;100.00
62942;BME280;49042;47.318;19.874;2023-12-29T02:25:55;100896.03;;;2.38;100.00
62942;BME280;49042;47.318;19.874;2023-12-29T02:29:02;100888.22;;;2.37;100.00
62942;BME280;49042;47.318;19.874;2023-12-29T02:32:11;100888.75;;;2.44;100.00
62942;BME280;49042;47.318;19.874;2023-12-29T02:35:18;100883.81;;;2.48;100.00
62942;BME280;49042;47.318;19.874;2023-12-29T02:38:21;100882.69;;;2.44;100.00
62942;BME280;49042;47.318;19.874;2023-12-29T02:41:23;100877.94;;;2.24;100.00
62942;BME280;49042;47.318;19.874;2023-12-29T02:44:26;100874.47;;;2.24;100.00
62942;BME280;49042;47.318;19.874;2023-12-29T02:47:28;100875.81;;;1.95;100.00
62942;BME280;49042;47.318;19.874;2023-12-29T02:50:30;100869.59;;;1.56;100.00
62942;BME280;49042;47.318;19.874;2023-12-29T02:53:31;100862.41;;;1.87;100.00
62942;BME280;49042;47.318;19.874;2023-12-29T02:56:33;100864.97;;;1.87;100.00
62942;BME280;49042;47.318;19.874;2023-12-29T02:59:36;100863.97;;;1.97;100.00
62942;BME280;49042;47.318;19.874;2023-12-29T03:02:38;100870.78;;;1.96;100.00
62942;BME280;49042;47.318;19.874;2023-12-29T03:05:40;100884.97;;;1.91;100.00
62942;BME280;49042;47.318;19.874;2023-12-29T03:08:42;100888.13;;;1.87;100.00
62942;BME280;49042;47.318;19.874;2023-12-29T03:11:44;100885.31;;;1.96;100.00
62942;BME280;49042;47.318;19.874;2023-12-29T03:14:45;100886.44;;;2.11;100.00
62942;BME280;49042;47.318;19.874;2023-12-29T03:17:48;100881.16;;;1.74;100.00
62942;BME280;49042;47.318;19.874;2023-12-29T03:20:50;100889.59;;;1.48;100.00
62942;BME280;49042;47.318;19.874;2023-12-29T03:23:52;100887.78;;;1.82;100.00
62942;BME280;49042;47.318;19.874;2023-12-29T03:26:53;100887.38;;;1.53;100.00
62942;BME280;49042;47.318;19.874;2023-12-29T03:29:55;100893.81;;;1.83;100.00
62942;BME280;49042;47.318;19.874;2023-12-29T03:32:57;100888.66;;;1.95;100.00
62942;BME280;49042;47.318;19.874;2023-12-29T03:35:59;100885.75;;;2.02;100.00
62942;BME280;49042;47.318;19.874;2023-12-29T03:39:00;100878.59;;;1.74;100.00
62942;BME280;49042;47.318;19.874;2023-12-29T03:42:03;100880.34;;;1.63;100.00
62942;BME280;49042;47.318;19.874;2023-12-29T03:45:05;100874.78;;;1.68;100.00
62942;BME280;49042;47.318;19.874;2023-12-29T03:48:07;100870.31;;;1.78;100.00
62942;BME280;49042;47.318;19.874;2023-12-29T03:51:10;100873.00;;;1.67;100.00
62942;BME280;49042;47.318;19.874;2023-12-29T03:54:12;100869.59;;;1.44;100.00
62942;BME280;49042;47.318;19.874;2023-12-29T03:57:14;100870.16;;;0.83;100.00
62942;BME280;49042;47.318;19.874;2023-12-29T04:00:16;100870.53;;;1.22;100.00
62942;BME280;49042;47.318;19.874;2023-12-29T04:03:18;100886.53;;;1.65;100.00
62942;BME280;49042;47.318;19.874;2023-12-29T04:06:20;100876.81;;;1.73;100.00
62942;BME280;49042;47.318;19.874;2023-12-29T04:09:21;100875.91;;;1.72;100.00
62942;BME280;49042;47.318;19.874;2023-12-29T04:12:23;100874.22;;;1.60;100.00
62942;BME280;49042;47.318;19.874;2023-12-29T04:15:25;100878.53;;;1.49;100.00
62942;BME280;49042;47.318;19.874;2023-12-29T04:18:28;100878.53;;;0.80;100.00
62942;BME280;49042;47.318;19.874;2023-12-29T04:21:30;100866.09;;;0.74;100.00
62942;BME280;49042;47.318;19.874;2023-12-29T04:24:32;100865.00;;;0.60;100.00
62942;BME280;49042;47.318;19.874;2023-12-29T04:27:34;100866.53;;;0.91;100.00
62942;BME280;49042;47.318;19.874;2023-12-29T04:30:36;100863.16;;;1.15;100.00
62942;BME280;49042;47.318;19.874;2023-12-29T04:33:38;100860.44;;;1.13;100.00
62942;BME280;49042;47.318;19.874;2023-12-29T04:36:40;100858.44;;;1.09;100.00
62942;BME280;49042;47.318;19.874;2023-12-29T04:39:42;100873.16;;;1.34;100.00
62942;BME280;49042;47.318;19.874;2023-12-29T04:42:44;100876.59;;;1.23;100.00
62942;BME280;49042;47.318;19.874;2023-12-29T04:45:46;100883.34;;;1.10;100.00
62942;BME280;49042;47.318;19.874;2023-12-29T04:48:47;100888.37;;;1.43;100.00
62942;BME280;49042;47.318;19.874;2023-12-29T04:51:49;100890.97;;;1.21;100.00
62942;BME280;49042;47.318;19.874;2023-12-29T04:54:51;100891.91;;;0.99;100.00
62942;BME280;49042;47.318;19.874;2023-12-29T04:57:54;100888.13;;;1.05;100.00
62942;BME280;49042;47.318;19.874;2023-12-29T05:00:55;100882.94;;;1.28;100.00
62942;BME280;49042;47.318;19.874;2023-12-29T05:03:57;100876.19;;;1.41;100.00
62942;BME280;49042;47.318;19.874;2023-12-29T05:06:59;100870.50;;;1.45;100.00
62942;BME280;49042;47.318;19.874;2023-12-29T05:10:01;100876.00;;;1.62;100.00
62942;BME280;49042;47.318;19.874;2023-12-29T05:13:03;100866.00;;;1.30;100.00
62942;BME280;49042;47.318;19.874;2023-12-29T05:16:05;100868.66;;;1.32;100.00
62942;BME280;49042;47.318;19.874;2023-12-29T05:19:07;100871.69;;;1.38;100.00
62942;BME280;49042;47.318;19.874;2023-12-29T05:22:09;100873.72;;;1.42;100.00
62942;BME280;49042;47.318;19.874;2023-12-29T05:25:11;100870.09;;;1.28;100.00
62942;BME280;49042;47.318;19.874;2023-12-29T05:28:13;100877.78;;;1.16;100.00
62942;BME280;49042;47.318;19.874;2023-12-29T05:31:15;100869.44;;;0.73;100.00
62942;BME280;49042;47.318;19.874;2023-12-29T05:34:17;100873.66;;;1.18;100.00
62942;BME280;49042;47.318;19.874;2023-12-29T05:37:18;100872.72;;;1.40;100.00
62942;BME280;49042;47.318;19.874;2023-12-29T05:40:20;100864.19;;;1.29;100.00
62942;BME280;49042;47.318;19.874;2023-12-29T05:43:22;100876.12;;;1.16;100.00
62942;BME280;49042;47.318;19.874;2023-12-29T05:46:24;100869.03;;;1.02;100.00
62942;BME280;49042;47.318;19.874;2023-12-29T05:49:26;100867.09;;;0.99;100.00
62942;BME280;49042;47.318;19.874;2023-12-29T05:52:28;100851.22;;;0.48;100.00
62942;BME280;49042;47.318;19.874;2023-12-29T05:55:30;100840.59;;;0.10;100.00
62942;BME280;49042;47.318;19.874;2023-12-29T05:58:32;100848.50;;;0.24;100.00
62942;BME280;49042;47.318;19.874;2023-12-29T06:01:34;100854.75;;;0.60;100.00
62942;BME280;49042;47.318;19.874;2023-12-29T06:04:36;100855.03;;;0.76;100.00
62942;BME280;49042;47.318;19.874;2023-12-29T06:07:38;100860.84;;;0.73;100.00
62942;BME280;49042;47.318;19.874;2023-12-29T06:10:43;100881.34;;;0.50;100.00
62942;BME280;49042;47.318;19.874;2023-12-29T06:13:45;100873.22;;;0.67;100.00
62942;BME280;49042;47.318;19.874;2023-12-29T06:16:47;100886.09;;;0.56;100.00
62942;BME280;49042;47.318;19.874;2023-12-29T06:19:50;100896.34;;;0.23;100.00
62942;BME280;49042;47.318;19.874;2023-12-29T06:22:52;100885.88;;;0.42;100.00
62942;BME280;49042;47.318;19.874;2023-12-29T06:25:56;100890.03;;;0.30;100.00
62942;BME280;49042;47.318;19.874;2023-12-29T06:29:02;100895.28;;;0.42;100.00
62942;BME280;49042;47.318;19.874;2023-12-29T06:32:05;100892.53;;;0.51;100.00
62942;BME280;49042;47.318;19.874;2023-12-29T06:35:37;100909.50;;;0.71;100.00
62942;BME280;49042;47.318;19.874;2023-12-29T06:38:41;100923.34;;;0.51;100.00
62942;BME280;49042;47.318;19.874;2023-12-29T06:41:43;100921.75;;;0.63;100.00
62942;BME280;49042;47.318;19.874;2023-12-29T06:44:46;100916.56;;;0.74;100.00
62942;BME280;49042;47.318;19.874;2023-12-29T06:47:48;100913.88;;;0.72;100.00
62942;BME280;49042;47.318;19.874;2023-12-29T06:50:49;100921.03;;;0.77;100.00
62942;BME280;49042;47.318;19.874;2023-12-29T06:53:51;100913.38;;;0.89;100.00
62942;BME280;49042;47.318;19.874;2023-12-29T06:56:53;100922.97;;;1.02;100.00
62942;BME280;49042;47.318;19.874;2023-12-29T06:59:55;100904.50;;;1.18;100.00
62942;BME280;49042;47.318;19.874;2023-12-29T07:02:57;100910.47;;;1.76;100.00
62942;BME280;49042;47.318;19.874;2023-12-29T07:06:02;100900.22;;;2.12;100.00
62942;BME280;49042;47.318;19.874;2023-12-29T07:09:04;100906.56;;;2.41;100.00
62942;BME280;49042;47.318;19.874;2023-12-29T07:12:06;100910.38;;;2.10;100.00
62942;BME280;49042;47.318;19.874;2023-12-29T07:15:09;100901.63;;;1.25;100.00
62942;BME280;49042;47.318;19.874;2023-12-29T07:18:11;100909.00;;;1.33;100.00
62942;BME280;49042;47.318;19.874;2023-12-29T07:21:14;100909.84;;;1.44;100.00
62942;BME280;49042;47.318;19.874;2023-12-29T07:24:20;100899.75;;;2.18;100.00
62942;BME280;49042;47.318;19.874;2023-12-29T07:27:22;100886.44;;;3.37;100.00
62942;BME280;49042;47.318;19.874;2023-12-29T07:30:23;100873.28;;;2.94;100.00
62942;BME280;49042;47.318;19.874;2023-12-29T07:33:27;100874.97;;;2.94;100.00
62942;BME280;49042;47.318;19.874;2023-12-29T07:36:47;100871.06;;;4.18;100.00
62942;BME280;49042;47.318;19.874;2023-12-29T07:39:57;100876.72;;;5.11;100.00
62942;BME280;49042;47.318;19.874;2023-12-29T07:43:15;100869.62;;;5.68;100.00
62942;BME280;49042;47.318;19.874;2023-12-29T07:46:24;100861.16;;;5.71;100.00
62942;BME280;49042;47.318;19.874;2023-12-29T07:49:27;100874.84;;;4.37;100.00
62942;BME280;49042;47.318;19.874;2023-12-29T07:52:30;100858.28;;;4.63;100.00
62942;BME280;49042;47.318;19.874;2023-12-29T07:55:32;100884.16;;;4.35;100.00
62942;BME280;49042;47.318;19.874;2023-12-29T07:58:34;100888.56;;;5.08;100.00
62942;BME280;49042;47.318;19.874;2023-12-29T08:01:35;100882.28;;;5.94;100.00
62942;BME280;49042;47.318;19.874;2023-12-29T08:04:38;100887.06;;;6.33;100.00
62942;BME280;49042;47.318;19.874;2023-12-29T08:07:40;100884.69;;;5.30;100.00
62942;BME280;49042;47.318;19.874;2023-12-29T08:10:42;100899.62;;;4.63;100.00
62942;BME280;49042;47.318;19.874;2023-12-29T08:13:47;100898.53;;;5.01;100.00
62942;BME280;49042;47.318;19.874;2023-12-29T08:16:49;100888.56;;;4.79;100.00
62942;BME280;49042;47.318;19.874;2023-12-29T08:19:50;100910.97;;;6.12;100.00
62942;BME280;49042;47.318;19.874;2023-12-29T08:22:52;100871.28;;;9.32;100.00
62942;BME280;49042;47.318;19.874;2023-12-29T08:25:56;100872.13;;;9.33;100.00
62942;BME280;49042;47.318;19.874;2023-12-29T08:28:58;100868.59;;;10.86;86.11
62942;BME280;49042;47.318;19.874;2023-12-29T08:32:00;100867.53;;;12.68;65.17
62942;BME280;49042;47.318;19.874;2023-12-29T08:35:04;100868.34;;;12.67;62.78
62942;BME280;49042;47.318;19.874;2023-12-29T08:38:06;100878.94;;;10.83;76.42
62942;BME280;49042;47.318;19.874;2023-12-29T08:41:07;100878.41;;;12.82;64.68
62942;BME280;49042;47.318;19.874;2023-12-29T08:44:09;100891.34;;;12.48;63.92
62942;BME280;49042;47.318;19.874;2023-12-29T08:47:11;100880.63;;;13.65;57.37
62942;BME280;49042;47.318;19.874;2023-12-29T08:50:12;100883.31;;;13.36;55.49
62942;BME280;49042;47.318;19.874;2023-12-29T08:53:17;100886.41;;;12.28;61.07
62942;BME280;49042;47.318;19.874;2023-12-29T08:56:19;100881.50;;;13.32;65.67
62942;BME280;49042;47.318;19.874;2023-12-29T08:59:20;100881.19;;;16.11;49.71
62942;BME280;49042;47.318;19.874;2023-12-29T09:02:22;100877.53;;;18.73;41.22
62942;BME280;49042;47.318;19.874;2023-12-29T09:05:26;100882.28;;;21.66;34.89
62942;BME280;49042;47.318;19.874;2023-12-29T09:08:28;100889.31;;;23.29;31.65
62942;BME280;49042;47.318;19.874;2023-12-29T09:11:30;100889.41;;;24.34;29.89
62942;BME280;49042;47.318;19.874;2023-12-29T09:14:31;100873.16;;;22.81;30.71
62942;BME280;49042;47.318;19.874;2023-12-29T09:17:35;100882.47;;;24.22;29.21
62942;BME280;49042;47.318;19.874;2023-12-29T09:20:37;100881.16;;;23.97;29.13
62942;BME280;49042;47.318;19.874;2023-12-29T09:23:39;100882.31;;;21.63;32.55
62942;BME280;49042;47.318;19.874;2023-12-29T09:26:41;100873.84;;;21.11;33.95
62942;BME280;49042;47.318;19.874;2023-12-29T09:29:43;100868.25;;;16.27;43.16
62942;BME280;49042;47.318;19.874;2023-12-29T09:32:45;100857.34;;;18.98;40.96
62942;BME280;49042;47.318;19.874;2023-12-29T09:35:47;100859.19;;;20.25;39.26
62942;BME280;49042;47.318;19.874;2023-12-29T09:38:48;100862.72;;;21.78;36.40
62942;BME280;49042;47.318;19.874;2023-12-29T09:41:55;100858.31;;;20.21;38.77
62942;BME280;49042;47.318;19.874;2023-12-29T09:45:02;100852.72;;;23.45;33.84
62942;BME280;49042;47.318;19.874;2023-12-29T09:48:07;100858.47;;;24.69;31.15
62942;BME280;49042;47.318;19.874;2023-12-29T09:51:10;100854.00;;;21.65;35.37
62942;BME280;49042;47.318;19.874;2023-12-29T09:54:12;100840.31;;;22.11;34.38
62942;BME280;49042;47.318;19.874;2023-12-29T09:57:15;100843.03;;;22.82;33.61
62942;BME280;49042;47.318;19.874;2023-12-29T10:00:18;100843.97;;;23.37;33.25
62942;BME280;49042;47.318;19.874;2023-12-29T10:03:22;100839.78;;;23.77;32.23
62942;BME280;49042;47.318;19.874;2023-12-29T10:06:24;100835.44;;;25.05;30.25
62942;BME280;49042;47.318;19.874;2023-12-29T10:09:26;100829.50;;;24.52;31.24
62942;BME280;49042;47.318;19.874;2023-12-29T10:12:31;100808.03;;;24.58;30.85
62942;BME280;49042;47.318;19.874;2023-12-29T10:15:37;100794.69;;;21.66;35.45
62942;BME280;49042;47.318;19.874;2023-12-29T10:22:21;100783.63;;;23.39;34.32
62942;BME280;49042;47.318;19.874;2023-12-29T10:25:27;100776.97;;;23.11;34.26
62942;BME280;49042;47.318;19.874;2023-12-29T10:28:29;100773.06;;;25.80;30.91
62942;BME280;49042;47.318;19.874;2023-12-29T10:31:30;100787.25;;;23.35;33.22
62942;BME280;49042;47.318;19.874;2023-12-29T10:34:32;100790.16;;;20.62;37.82
62942;BME280;49042;47.318;19.874;2023-12-29T10:37:34;100786.69;;;17.11;45.96
62942;BME280;49042;47.318;19.874;2023-12-29T10:40:36;100789.37;;;17.18;52.92
62942;BME280;49042;47.318;19.874;2023-12-29T10:43:38;100785.22;;;15.29;67.80
62942;BME280;49042;47.318;19.874;2023-12-29T10:46:39;100783.69;;;14.93;78.06
62942;BME280;49042;47.318;19.874;2023-12-29T10:49:41;100785.78;;;14.22;94.42
62942;BME280;49042;47.318;19.874;2023-12-29T10:52:43;100790.66;;;13.31;100.00
62942;BME280;49042;47.318;19.874;2023-12-29T10:55:46;100786.25;;;13.30;100.00
62942;BME280;49042;47.318;19.874;2023-12-29T10:59:05;100782.22;;;13.43;100.00
62942;BME280;49042;47.318;19.874;2023-12-29T11:02:11;100785.69;;;13.07;100.00
62942;BME280;49042;47.318;19.874;2023-12-29T11:05:16;100792.09;;;12.23;100.00
62942;BME280;49042;47.318;19.874;2023-12-29T11:08:19;100772.75;;;12.47;100.00
62942;BME280;49042;47.318;19.874;2023-12-29T11:11:21;100776.41;;;12.23;100.00
62942;BME280;49042;47.318;19.874;2023-12-29T11:14:23;100765.25;;;12.29;100.00
62942;BME280;49042;47.318;19.874;2023-12-29T11:17:26;100774.56;;;12.50;100.00
62942;BME280;49042;47.318;19.874;2023-12-29T11:20:28;100779.81;;;12.50;100.00
62942;BME280;49042;47.318;19.874;2023-12-29T11:23:30;100775.87;;;12.66;100.00
62942;BME280;49042;47.318;19.874;2023-12-29T11:26:32;100770.94;;;13.11;100.00
62942;BME280;49042;47.318;19.874;2023-12-29T11:29:35;100770.62;;;12.65;100.00
62942;BME280;49042;47.318;19.874;2023-12-29T11:32:45;100764.88;;;12.80;100.00
62942;BME280;49042;47.318;19.874;2023-12-29T11:42:22;100739.53;;;12.77;100.00
62942;BME280;49042;47.318;19.874;2023-12-29T11:45:30;100724.47;;;12.06;100.00
62942;BME280;49042;47.318;19.874;2023-12-29T11:49:05;100730.53;;;13.01;100.00
62942;BME280;49042;47.318;19.874;2023-12-29T11:52:08;100735.03;;;13.05;100.00
62942;BME280;49042;47.318;19.874;2023-12-29T11:55:13;100745.28;;;12.98;100.00
62942;BME280;49042;47.318;19.874;2023-12-29T11:58:24;100744.12;;;12.86;100.00
62942;BME280;49042;47.318;19.874;2023-12-29T12:01:34;100736.44;;;12.92;100.00
62942;BME280;49042;47.318;19.874;2023-12-29T12:04:41;100737.47;;;12.99;100.00
62942;BME280;49042;47.318;19.874;2023-12-29T12:07:56;100731.84;;;13.17;100.00
62942;BME280;49042;47.318;19.874;2023-12-29T12:14:52;100733.84;;;13.30;100.00
62942;BME280;49042;47.318;19.874;2023-12-29T12:18:05;100739.56;;;13.13;100.00
62942;BME280;49042;47.318;19.874;2023-12-29T12:21:11;100724.13;;;13.59;100.00
62942;BME280;49042;47.318;19.874;2023-12-29T12:24:13;100724.28;;;13.30;100.00
62942;BME280;49042;47.318;19.874;2023-12-29T12:27:15;100713.22;;;13.81;100.00
62942;BME280;49042;47.318;19.874;2023-12-29T12:30:18;100707.28;;;13.49;100.00
62942;BME280;49042;47.318;19.874;2023-12-29T12:33:20;100705.50;;;13.87;100.00
62942;BME280;49042;47.318;19.874;2023-12-29T12:36:22;100708.19;;;13.90;100.00
62942;BME280;49042;47.318;19.874;2023-12-29T12:39:38;100698.97;;;13.31;100.00
62942;BME280;49042;47.318;19.874;2023-12-29T12:42:40;100700.06;;;13.41;100.00
62942;BME280;49042;47.318;19.874;2023-12-29T12:45:54;100700.88;;;13.38;100.00
62942;BME280;49042;47.318;19.874;2023-12-29T12:48:59;100690.38;;;13.75;100.00
62942;BME280;49042;47.318;19.874;2023-12-29T12:52:01;100694.84;;;13.79;100.00
62942;BME280;49042;47.318;19.874;2023-12-29T12:55:05;100690.53;;;13.43;100.00
62942;BME280;49042;47.318;19.874;2023-12-29T12:58:07;100684.22;;;13.73;100.00
62942;BME280;49042;47.318;19.874;2023-12-29T13:01:09;100682.88;;;13.92;100.00
62942;BME280;49042;47.318;19.874;2023-12-29T13:04:12;100685.06;;;13.70;100.00
62942;BME280;49042;47.318;19.874;2023-12-29T13:07:16;100685.25;;;13.80;100.00
62942;BME280;49042;47.318;19.874;2023-12-29T13:14:24;100684.91;;;13.27;100.00
62942;BME280;49042;47.318;19.874;2023-12-29T13:17:27;100680.91;;;13.06;100.00
62942;BME280;49042;47.318;19.874;2023-12-29T13:20:29;100683.41;;;13.00;100.00
62942;BME280;49042;47.318;19.874;2023-12-29T13:23:31;100689.16;;;12.52;100.00
62942;BME280;49042;47.318;19.874;2023-12-29T13:26:33;100669.47;;;12.67;100.00
62942;BME280;49042;47.318;19.874;2023-12-29T13:29:35;100677.09;;;12.57;100.00
62942;BME280;49042;47.318;19.874;2023-12-29T13:32:38;100676.19;;;12.57;100.00
62942;BME280;49042;47.318;19.874;2023-12-29T13:35:47;100677.56;;;12.76;100.00
62942;BME280;49042;47.318;19.874;2023-12-29T13:38:59;100677.78;;;12.50;100.00
62942;BME280;49042;47.318;19.874;2023-12-29T13:42:06;100682.81;;;12.13;100.00
62942;BME280;49042;47.318;19.874;2023-12-29T13:45:11;100684.03;;;12.24;100.00
62942;BME280;49042;47.318;19.874;2023-12-29T13:48:14;100688.06;;;12.44;100.00
62942;BME280;49042;47.318;19.874;2023-12-29T13:51:23;100684.50;;;12.41;100.00
62942;BME280;49042;47.318;19.874;2023-12-29T13:54:24;100679.59;;;11.91;100.00
62942;BME280;49042;47.318;19.874;2023-12-29T13:57:36;100676.94;;;11.89;100.00
62942;BME280;49042;47.318;19.874;2023-12-29T14:00:40;100683.94;;;11.61;100.00
62942;BME280;49042;47.318;19.874;2023-12-29T14:03:55;100685.00;;;11.97;100.00
62942;BME280;49042;47.318;19.874;2023-12-29T14:07:01;100679.94;;;11.72;100.00
62942;BME280;49042;47.318;19.874;2023-12-29T14:10:04;100677.09;;;11.64;100.00
62942;BME280;49042;47.318;19.874;2023-12-29T14:13:14;100675.84;;;11.53;100.00
62942;BME280;49042;47.318;19.874;2023-12-29T14:16:16;100679.12;;;11.45;100.00
62942;BME280;49042;47.318;19.874;2023-12-29T14:19:22;100685.75;;;11.34;100.00
62942;BME280;49042;47.318;19.874;2023-12-29T14:22:24;100679.41;;;10.99;100.00
62942;BME280;49042;47.318;19.874;2023-12-29T14:25:26;100692.94;;;10.87;100.00
62942;BME280;49042;47.318;19.874;2023-12-29T14:28:28;100696.53;;;10.91;100.00
62942;BME280;49042;47.318;19.874;2023-12-29T14:31:35;100697.34;;;10.64;100.00
62942;BME280;49042;47.318;19.874;2023-12-29T14:34:38;100693.06;;;10.41;100.00
62942;BME280;49042;47.318;19.874;2023-12-29T14:37:39;100691.59;;;10.49;100.00
62942;BME280;49042;47.318;19.874;2023-12-29T14:40:41;100694.78;;;10.41;100.00
62942;BME280;49042;47.318;19.874;2023-12-29T14:43:43;100696.00;;;10.01;100.00
62942;BME280;49042;47.318;19.874;2023-12-29T14:46:44;100691.75;;;9.80;100.00
62942;BME280;49042;47.318;19.874;2023-12-29T14:49:46;100693.94;;;9.92;100.00
62942;BME280;49042;47.318;19.874;2023-12-29T14:52:48;100690.03;;;9.81;100.00
62942;BME280;49042;47.318;19.874;2023-12-29T14:55:50;100693.03;;;9.46;100.00
62942;BME280;49042;47.318;19.874;2023-12-29T14:58:51;100699.72;;;9.17;100.00
62942;BME280;49042;47.318;19.874;2023-12-29T15:01:53;100698.00;;;9.39;100.00
62942;BME280;49042;47.318;19.874;2023-12-29T15:04:55;100709.69;;;9.28;100.00
62942;BME280;49042;47.318;19.874;2023-12-29T15:07:57;100711.16;;;8.99;100.00
62942;BME280;49042;47.318;19.874;2023-12-29T15:10:59;100710.69;;;8.88;100.00
62942;BME280;49042;47.318;19.874;2023-12-29T15:14:01;100710.50;;;8.24;100.00
62942;BME280;49042;47.318;19.874;2023-12-29T15:17:03;100712.03;;;8.59;100.00
62942;BME280;49042;47.318;19.874;2023-12-29T15:20:05;100710.84;;;8.52;100.00
62942;BME280;49042;47.318;19.874;2023-12-29T15:23:09;100718.44;;;8.27;100.00
62942;BME280;49042;47.318;19.874;2023-12-29T15:26:10;100717.97;;;8.16;100.00
62942;BME280;49042;47.318;19.874;2023-12-29T15:29:16;100733.75;;;7.46;100.00
62942;BME280;49042;47.318;19.874;2023-12-29T15:32:17;100741.06;;;7.35;100.00
62942;BME280;49042;47.318;19.874;2023-12-29T15:35:19;100744.81;;;7.60;100.00
62942;BME280;49042;47.318;19.874;2023-12-29T15:38:21;100746.47;;;7.58;100.00
62942;BME280;49042;47.318;19.874;2023-12-29T15:41:23;100746.88;;;7.12;100.00
62942;BME280;49042;47.318;19.874;2023-12-29T15:44:24;100759.31;;;6.84;100.00
62942;BME280;49042;47.318;19.874;2023-12-29T15:47:26;100757.16;;;6.59;100.00
62942;BME280;49042;47.318;19.874;2023-12-29T15:50:28;100753.00;;;6.79;100.00
62942;BME280;49042;47.318;19.874;2023-12-29T15:53:29;100758.81;;;6.75;100.00
62942;BME280;49042;47.318;19.874;2023-12-29T15:56:31;100766.72;;;6.60;100.00
62942;BME280;49042;47.318;19.874;2023-12-29T15:59:36;100758.75;;;6.40;100.00
62942;BME280;49042;47.318;19.874;2023-12-29T16:02:38;100763.06;;;6.39;100.00
62942;BME280;49042;47.318;19.874;2023-12-29T16:05:40;100770.41;;;5.99;100.00